Terminal Aerodrome Forecast
Issued by NWS Jackson, KY

Home | Current Version | Previous Version | Text Only | Print | Product List | Glossary On
Versions: 1 2 3 4 5 6 7 8 9 10 11 12 13 14 15 16 17 18
000
FTUS43 KJKL 271645 AAB
TAFJKL
TAF AMD
KJKL 271645Z 2717/2812 23006KT P6SM VCTS SCT025 BKN050CB
     FM280200 VRB03KT P6SM -SHRA VCTS OVC050CB
     FM280600 20004KT P6SM -SHRA OVC050
     FM280900 20004KT P6SM -SHRA OVC025=

USA.gov is the U.S. government's official web portal to all federal, state and local government web resources and services.